createdAt,value
2018-03-29T00:00:53.124Z,6.5
2018-03-29T00:06:43.990Z,6.39
2018-03-29T00:12:34.777Z,5.8
2018-03-29T00:18:25.675Z,5.33
2018-03-29T00:24:16.442Z,6.31
2018-03-29T00:30:07.253Z,4.94
2018-03-29T00:35:58.136Z,5.73
2018-03-29T00:41:48.906Z,5.86
2018-03-29T00:47:39.724Z,5.86
2018-03-29T00:53:30.546Z,5.8
2018-03-29T00:59:21.328Z,6.39
2018-03-29T01:05:12.165Z,6.59
2018-03-29T01:11:02.988Z,5.78
2018-03-29T01:16:53.752Z,7.45
2018-03-29T01:22:44.666Z,5.99
2018-03-29T01:28:35.410Z,6.34
2018-03-29T01:34:26.212Z,5.64
2018-03-29T01:40:17.056Z,6
2018-03-29T01:46:07.894Z,5.8
2018-03-29T01:51:58.677Z,5.94
2018-03-29T01:57:49.495Z,6.03
2018-03-29T02:03:40.325Z,5.49
2018-03-29T02:09:31.134Z,6.08
2018-03-29T02:15:21.935Z,11.55
2018-03-29T02:21:12.791Z,12.39
2018-03-29T02:27:03.565Z,5.35
2018-03-29T02:32:54.430Z,5.24
2018-03-29T02:38:45.226Z,4.53
2018-03-29T02:44:36.028Z,5
2018-03-29T02:50:26.879Z,4.41
2018-03-29T02:56:17.656Z,4.2
2018-03-29T03:02:08.455Z,7.24
2018-03-29T03:07:59.288Z,3.56
2018-03-29T03:13:50.117Z,3.79
2018-03-29T03:19:40.962Z,3.88
2018-03-29T03:25:31.780Z,4.06
2018-03-29T03:31:22.537Z,3.55
2018-03-29T03:37:13.365Z,4.8
2018-03-29T03:43:04.195Z,4.28
2018-03-29T03:48:55.005Z,4.59
2018-03-29T03:54:45.868Z,4.12
2018-03-29T04:00:36.668Z,3.66
2018-03-29T04:06:27.479Z,3.92
2018-03-29T04:12:18.310Z,5
2018-03-29T04:18:09.100Z,4.59
2018-03-29T04:23:59.877Z,4.38
2018-03-29T04:29:50.702Z,3.92
2018-03-29T04:35:41.540Z,4.13
2018-03-29T04:41:32.341Z,4.11
2018-03-29T04:47:23.182Z,4.83
2018-03-29T04:53:13.969Z,4.56
2018-03-29T04:59:04.782Z,4.39
2018-03-29T05:04:55.618Z,4.47
2018-03-29T05:10:46.479Z,4.87
2018-03-29T05:16:37.285Z,4.46
2018-03-29T05:22:28.225Z,5.04
2018-03-29T05:28:18.880Z,4.7
2018-03-29T05:34:09.678Z,4.35
2018-03-29T05:40:00.498Z,4.98
2018-03-29T05:45:51.343Z,4.06
2018-03-29T05:51:42.082Z,4.45
2018-03-29T05:57:32.907Z,4.64
2018-03-29T06:03:23.709Z,4.14
2018-03-29T06:09:14.548Z,4.61
2018-03-29T06:15:05.379Z,4.24
2018-03-29T06:20:56.189Z,3.96
2018-03-29T06:26:47.017Z,5.34
2018-03-29T06:32:37.773Z,4.78
2018-03-29T06:38:28.583Z,5.39
2018-03-29T06:44:19.476Z,5.43
2018-03-29T06:50:10.271Z,7.29
2018-03-29T06:56:01.022Z,8.22
2018-03-29T07:01:51.844Z,9.23
2018-03-29T07:07:42.739Z,7.88
2018-03-29T07:13:33.474Z,7.6
2018-03-29T07:19:24.333Z,7.5
2018-03-29T07:25:15.150Z,7.06
2018-03-29T07:31:05.960Z,7.02
2018-03-29T07:36:56.733Z,6.61
2018-03-29T07:42:47.632Z,6.33
2018-03-29T07:48:38.385Z,5.56
2018-03-29T07:54:29.181Z,5.45
2018-03-29T08:00:20.076Z,5.29
2018-03-29T08:06:10.851Z,6.09
2018-03-29T08:12:01.648Z,6.56
2018-03-29T08:17:52.519Z,7.07
2018-03-29T08:23:43.298Z,8.34
2018-03-29T08:29:34.149Z,7.3
2018-03-29T08:35:24.908Z,5.79
2018-03-29T08:41:15.793Z,4.95
2018-03-29T08:47:06.535Z,9.93
2018-03-29T08:52:57.387Z,14.05
2018-03-29T08:58:48.181Z,8.66
2018-03-29T09:04:39.000Z,4.7
2018-03-29T09:10:29.846Z,4.41
2018-03-29T09:16:20.667Z,4.89
2018-03-29T09:22:11.464Z,5.45
2018-03-29T09:28:02.479Z,5.29
2018-03-29T09:33:53.196Z,4.56
2018-03-29T09:39:43.946Z,4.6
2018-03-29T09:45:34.734Z,5.14
2018-03-29T09:51:25.598Z,4.7
2018-03-29T09:57:16.401Z,5.05
2018-03-29T10:03:07.270Z,5.47
2018-03-29T10:08:58.050Z,5.39
2018-03-29T10:14:48.904Z,6.51
2018-03-29T10:20:39.709Z,5.39
2018-03-29T10:26:30.548Z,6.43
2018-03-29T10:32:21.394Z,6
2018-03-29T10:38:12.207Z,6.03
2018-03-29T10:44:03.075Z,5.25
2018-03-29T10:49:53.898Z,5.8
2018-03-29T10:55:44.789Z,6.59
2018-03-29T11:01:35.688Z,5.64
2018-03-29T11:07:26.473Z,5.75
2018-03-29T11:13:17.318Z,5.95
2018-03-29T11:19:08.184Z,6.61
2018-03-29T11:24:59.026Z,5.73
2018-03-29T11:30:49.870Z,5.51
2018-03-29T11:36:40.786Z,5.57
2018-03-29T11:42:31.709Z,6.52
2018-03-29T11:48:22.412Z,6.22
2018-03-29T11:54:13.266Z,5.8
2018-03-29T12:00:04.164Z,6.25
2018-03-29T12:05:54.989Z,4.99
2018-03-29T12:11:45.876Z,5.21
2018-03-29T12:17:36.668Z,4.56
2018-03-29T12:23:27.554Z,4.78
2018-03-29T12:29:18.375Z,4.7
2018-03-29T12:35:09.363Z,4.38
2018-03-29T12:41:00.178Z,4.41
2018-03-29T12:46:51.010Z,3.98
2018-03-29T12:52:41.847Z,3.89
2018-03-29T12:58:32.712Z,3.99
2018-03-29T13:04:23.504Z,3.1
2018-03-29T13:10:14.436Z,3.58
2018-03-29T13:16:05.291Z,2.99
2018-03-29T13:21:56.090Z,2.59
2018-03-29T13:27:46.944Z,2.97
2018-03-29T13:33:37.828Z,2.98
2018-03-29T13:39:28.674Z,5.15
2018-03-29T13:45:19.543Z,2.39
2018-03-29T13:51:10.443Z,3.42
2018-03-29T13:57:01.294Z,3.38
2018-03-29T14:02:52.192Z,2.82
2018-03-29T14:08:43.043Z,2.59
2018-03-29T14:14:33.879Z,2.75
2018-03-29T14:20:24.725Z,3.02
2018-03-29T14:26:15.582Z,2.55
2018-03-29T14:32:06.425Z,2.82
2018-03-29T14:37:57.303Z,2.73
2018-03-29T14:43:48.137Z,2.67
2018-03-29T14:49:39.002Z,2.48
2018-03-29T14:55:29.876Z,2.96
2018-03-29T15:01:20.749Z,2.95
2018-03-29T15:07:11.658Z,2.85
2018-03-29T15:13:02.396Z,2.9
2018-03-29T15:18:53.247Z,2.84
2018-03-29T15:24:44.147Z,2.45
2018-03-29T15:30:34.945Z,3
2018-03-29T15:36:25.825Z,2.48
2018-03-29T15:42:16.638Z,2.87
2018-03-29T15:48:07.543Z,2.92
2018-03-29T15:53:58.388Z,3.03
2018-03-29T15:59:49.183Z,4.06
2018-03-29T16:05:40.059Z,3.07
2018-03-29T16:11:30.888Z,2.97
2018-03-29T16:17:21.743Z,2.92
2018-03-29T16:23:12.610Z,3.54
2018-03-29T16:29:03.414Z,3.31
2018-03-29T16:34:54.279Z,3.67
2018-03-29T16:40:45.171Z,4.07
2018-03-29T16:46:35.989Z,4.92
2018-03-29T16:52:26.887Z,4.95
2018-03-29T16:58:17.651Z,5.51
2018-03-29T17:04:08.475Z,4.97
2018-03-29T17:09:59.365Z,4.96
2018-03-29T17:15:50.170Z,4.64
2018-03-29T17:21:40.986Z,4.12
2018-03-29T17:27:31.816Z,4.42
2018-03-29T17:33:22.741Z,4.88
2018-03-29T17:39:13.493Z,4.46
2018-03-29T17:45:04.396Z,4.02
2018-03-29T17:50:55.199Z,4.78
2018-03-29T17:56:46.001Z,4.74
2018-03-29T18:02:36.891Z,3.82
2018-03-29T18:08:27.700Z,5.07
2018-03-29T18:14:18.513Z,4.53
2018-03-29T18:20:09.334Z,11.12
2018-03-29T18:26:00.232Z,8.57
2018-03-29T18:31:51.081Z,8.46
2018-03-29T18:37:41.871Z,7.56
2018-03-29T18:43:32.710Z,7.04
2018-03-29T18:49:23.542Z,19.15
2018-03-29T18:55:14.401Z,9.58
2018-03-29T19:01:05.206Z,6.83
2018-03-29T19:06:56.054Z,11.62
2018-03-29T19:12:46.859Z,5.11
2018-03-29T19:18:37.735Z,16.26
2018-03-29T19:24:28.555Z,11.84
2018-03-29T19:30:19.339Z,5.37
2018-03-29T19:36:10.212Z,5.47
2018-03-29T19:42:00.964Z,11.11
2018-03-29T19:47:51.862Z,4.31
2018-03-29T19:53:42.651Z,4.12
2018-03-29T19:59:33.476Z,3.46
2018-03-29T20:05:24.318Z,4.9
2018-03-29T20:11:15.124Z,4.17
2018-03-29T20:17:05.965Z,3.29
2018-03-29T20:22:56.778Z,4.3
2018-03-29T20:28:47.665Z,3.05
2018-03-29T20:34:38.388Z,3.06
2018-03-29T20:40:29.295Z,3.23
2018-03-29T20:46:20.055Z,3.65
2018-03-29T20:52:10.870Z,3.68
2018-03-29T20:58:01.707Z,3.97
2018-03-29T21:03:52.504Z,4.05
2018-03-29T21:09:43.337Z,4.22
2018-03-29T21:15:34.167Z,3.69
2018-03-29T21:21:25.029Z,3.84
2018-03-29T21:27:15.788Z,3.42
2018-03-29T21:33:06.665Z,3.32
2018-03-29T21:38:57.469Z,3.16
2018-03-29T21:44:48.334Z,5.98
2018-03-29T21:50:39.071Z,3.45
2018-03-29T21:56:29.890Z,4.5
2018-03-29T22:02:20.774Z,3.92
2018-03-29T22:08:11.542Z,3.86
2018-03-29T22:14:02.352Z,3.52
2018-03-29T22:19:53.149Z,3.98
2018-03-29T22:25:44.044Z,4.98
2018-03-29T22:31:34.809Z,4.35
2018-03-29T22:37:25.651Z,4.74
2018-03-29T22:43:16.510Z,4.05
2018-03-29T22:49:07.299Z,4.22
2018-03-29T22:54:58.112Z,3.21
2018-03-29T23:00:48.977Z,3.64
2018-03-29T23:06:39.731Z,4.26
2018-03-29T23:12:30.590Z,3.62
2018-03-29T23:18:21.421Z,3.64
2018-03-29T23:24:12.200Z,3.58
2018-03-29T23:30:03.090Z,3.45
2018-03-29T23:35:53.851Z,3.96
2018-03-29T23:41:44.681Z,3.33
2018-03-29T23:47:35.557Z,3.77
2018-03-29T23:53:26.309Z,3.25
2018-03-29T23:59:17.143Z,3.07
